Time;durP1;ratioP1;P1;durP2;ratioP2;P2;SDS_P1;SDS_P2;PMS_P1;PMS_P2;Temp;Humidity;BMP_temperature;BMP_pressure;BME280_temperature;BME280_humidity;BME280_pressure;Samples;Min_cycle;Max_cycle;Signal;HPM_P1;HPM_P2
2022/07/19 00:01:28;;;;;;;2.40;1.20;;;;;;;18.16;66.81;99083.53;4973226;28;20352;-62
2022/07/19 00:03:56;;;;;;;7.45;1.80;;;;;;;18.04;67.30;99075.34;4968413;28;20516;-62
2022/07/19 00:06:21;;;;;;;3.53;1.60;;;;;;;18.05;70.48;99081.66;4967991;28;20431;-62
2022/07/19 00:08:46;;;;;;;9.38;1.65;;;;;;;18.10;74.50;99074.38;4989827;28;20026;-62
2022/07/19 00:11:12;;;;;;;5.10;1.60;;;;;;;18.04;76.97;99080.00;4975262;28;20026;-62
2022/07/19 00:13:37;;;;;;;6.75;1.90;;;;;;;17.94;78.80;99080.63;4970697;28;20034;-62
2022/07/19 00:16:03;;;;;;;2.65;1.65;;;;;;;17.90;79.88;99084.94;4973028;28;20027;-62
2022/07/19 00:18:28;;;;;;;5.78;1.70;;;;;;;17.94;80.80;99083.38;4965482;28;20022;-62
2022/07/19 00:20:53;;;;;;;2.83;1.42;;;;;;;17.86;82.02;99078.28;4967650;28;20031;-62
2022/07/19 00:23:19;;;;;;;4.82;1.80;;;;;;;17.79;81.57;99085.75;4974542;28;20502;-62
2022/07/19 00:25:44;;;;;;;6.45;1.67;;;;;;;17.75;82.26;99089.00;4970343;28;20081;-62
2022/07/19 00:28:10;;;;;;;5.72;1.63;;;;;;;17.67;82.88;99089.38;4972832;28;20072;-62
2022/07/19 00:30:35;;;;;;;3.45;1.80;;;;;;;17.63;83.85;99087.38;4962801;28;20031;-62
2022/07/19 00:33:04;;;;;;;5.35;1.60;;;;;;;17.66;84.61;99084.16;4970922;28;20073;-62
2022/07/19 00:35:29;;;;;;;7.55;1.90;;;;;;;17.68;82.25;99088.31;4973268;28;20023;-62
2022/07/19 00:37:55;;;;;;;3.65;1.50;;;;;;;17.58;83.19;99082.66;4973369;28;20041;-62
2022/07/19 00:40:22;;;;;;;4.55;1.70;;;;;;;17.44;82.25;99090.25;4970674;28;20027;-62
2022/07/19 00:42:48;;;;;;;5.28;1.60;;;;;;;17.35;81.79;99088.16;4973297;28;20034;-62
2022/07/19 00:45:15;;;;;;;4.50;1.90;;;;;;;17.18;82.34;99083.41;4995059;23;20046;-62
2022/07/19 00:47:41;;;;;;;6.05;1.70;;;;;;;17.05;82.92;99092.69;5010478;23;20094;-71
2022/07/19 00:50:07;;;;;;;4.72;1.58;;;;;;;16.88;83.85;99074.53;5006771;28;20026;-71
2022/07/19 00:52:32;;;;;;;5.57;1.50;;;;;;;16.98;84.73;99100.19;4995715;28;20022;-71
2022/07/19 00:54:58;;;;;;;3.65;1.40;;;;;;;16.83;83.22;99076.06;4991526;28;20031;-72
2022/07/19 00:57:24;;;;;;;6.80;1.80;;;;;;;16.97;81.19;99086.75;4975241;28;20030;-72
2022/07/19 00:59:52;;;;;;;4.88;1.45;;;;;;;16.97;81.46;99089.50;4966760;28;21187;-72
2022/07/19 01:02:18;;;;;;;11.07;2.33;;;;;;;16.98;79.96;99083.81;4970770;28;20019;-72
2022/07/19 01:04:44;;;;;;;6.10;2.15;;;;;;;17.08;82.73;99078.56;4969673;28;20412;-72
2022/07/19 01:07:09;;;;;;;3.75;1.60;;;;;;;17.20;85.62;99084.00;4971799;28;20030;-72
2022/07/19 01:09:37;;;;;;;3.60;1.80;;;;;;;17.24;84.10;99078.91;4972513;28;20030;-72
2022/07/19 01:12:02;;;;;;;4.85;1.80;;;;;;;17.00;83.89;99059.81;4968940;28;20022;-72
2022/07/19 01:14:28;;;;;;;6.88;2.10;;;;;;;16.89;85.19;99070.72;4970396;28;20500;-72
2022/07/19 01:16:53;;;;;;;5.93;1.98;;;;;;;16.80;87.32;99075.72;4967451;28;20023;-72
2022/07/19 01:19:18;;;;;;;7.53;2.22;;;;;;;16.81;87.84;99074.63;4970303;28;20037;-72
2022/07/19 01:21:44;;;;;;;4.97;2.15;;;;;;;16.92;83.51;99081.16;4969727;28;20088;-71
2022/07/19 01:24:09;;;;;;;10.20;3.55;;;;;;;16.88;82.89;99071.81;4972060;28;20118;-72
2022/07/19 01:26:34;;;;;;;9.38;2.55;;;;;;;16.86;80.91;99083.78;4972284;28;20387;-72
2022/07/19 01:29:00;;;;;;;10.80;2.60;;;;;;;16.79;80.92;99076.78;4968854;28;21882;-71
2022/07/19 01:31:25;;;;;;;4.70;2.00;;;;;;;16.78;80.49;99067.75;4968629;28;20081;-72
2022/07/19 01:33:50;;;;;;;3.45;1.75;;;;;;;16.70;79.68;99073.53;4968308;28;20034;-72
2022/07/19 01:36:16;;;;;;;4.30;2.20;;;;;;;16.61;79.45;99080.41;4971608;28;20022;-72
2022/07/19 01:38:41;;;;;;;5.22;1.80;;;;;;;16.50;81.20;99060.19;4969074;28;20393;-72
2022/07/19 01:41:07;;;;;;;4.28;1.70;;;;;;;16.67;84.03;99076.75;4966046;28;20362;-72
2022/07/19 01:43:33;;;;;;;5.72;1.83;;;;;;;16.62;86.64;99082.09;4970361;28;20027;-72
2022/07/19 01:45:58;;;;;;;7.75;1.90;;;;;;;16.43;88.72;99076.72;4969438;28;20042;-72
2022/07/19 01:48:24;;;;;;;4.20;1.70;;;;;;;16.27;90.64;99074.66;4971972;28;20034;-72
2022/07/19 01:50:50;;;;;;;3.63;2.25;;;;;;;16.33;90.93;99086.56;4965521;28;20022;-72
2022/07/19 01:53:15;;;;;;;7.75;2.28;;;;;;;16.29;91.23;99090.81;4968940;28;20069;-72
2022/07/19 01:55:41;;;;;;;6.30;1.77;;;;;;;16.18;86.05;99085.06;4969576;28;20027;-72
2022/07/19 01:58:06;;;;;;;8.43;1.70;;;;;;;16.17;86.53;99088.06;4968831;28;20121;-72
2022/07/19 02:00:32;;;;;;;2.83;1.40;;;;;;;15.95;88.81;99069.44;4969264;28;20023;-72
2022/07/19 02:02:57;;;;;;;5.60;1.40;;;;;;;15.94;89.37;99078.72;4969809;28;20485;-71
2022/07/19 02:05:22;;;;;;;8.27;1.80;;;;;;;15.87;89.51;99080.69;4969997;28;20536;-72
2022/07/19 02:07:48;;;;;;;2.47;1.50;;;;;;;15.80;88.88;99082.69;4971447;28;20170;-72
2022/07/19 02:10:14;;;;;;;2.15;1.55;;;;;;;15.72;90.03;99075.66;4963174;28;20507;-72
2022/07/19 02:12:39;;;;;;;2.67;1.20;;;;;;;15.65;90.60;99074.06;4970797;28;20030;-72
2022/07/19 02:15:06;;;;;;;3.35;1.50;;;;;;;15.75;93.30;99074.38;4971170;28;20038;-72
2022/07/19 02:17:31;;;;;;;2.90;1.52;;;;;;;15.90;91.50;99077.53;4972384;28;20026;-72
2022/07/19 02:19:56;;;;;;;3.72;1.50;;;;;;;15.83;92.26;99073.22;4963070;28;20384;-71
2022/07/19 02:22:22;;;;;;;5.60;1.70;;;;;;;15.82;92.48;99077.81;4969150;28;20034;-72
2022/07/19 02:24:47;;;;;;;3.03;1.60;;;;;;;15.91;93.51;99061.97;4969203;28;20034;-72
2022/07/19 02:27:12;;;;;;;3.78;1.67;;;;;;;15.95;93.10;99072.19;4969416;28;20531;-72
2022/07/19 02:29:38;;;;;;;2.47;1.58;;;;;;;15.76;92.42;99062.38;4971388;28;20021;-72
2022/07/19 02:32:04;;;;;;;3.58;1.38;;;;;;;15.64;93.31;99056.84;4966907;28;20113;-72
2022/07/19 02:34:30;;;;;;;3.70;1.60;;;;;;;15.55;94.96;99072.69;4970791;28;20036;-71
2022/07/19 02:36:55;;;;;;;8.85;1.60;;;;;;;15.44;95.79;99054.38;4969272;28;20030;-72
2022/07/19 02:39:21;;;;;;;4.30;1.88;;;;;;;15.41;97.50;99063.00;4965794;28;20081;-72
2022/07/19 02:41:46;;;;;;;8.13;1.38;;;;;;;15.44;94.93;99070.72;4972330;28;20035;-72
2022/07/19 02:44:12;;;;;;;3.50;1.88;;;;;;;15.44;98.01;99078.09;4973794;28;20035;-72
2022/07/19 02:46:38;;;;;;;6.72;2.00;;;;;;;15.22;97.44;99048.56;4971440;28;20023;-73
2022/07/19 02:49:03;;;;;;;5.93;1.70;;;;;;;15.41;98.33;99068.47;4982948;28;20033;-72
2022/07/19 02:51:28;;;;;;;2.83;1.85;;;;;;;15.60;96.91;99066.53;4970015;28;20026;-72
2022/07/19 02:53:54;;;;;;;7.10;2.13;;;;;;;15.61;95.96;99064.66;4968462;28;20023;-72
2022/07/19 02:56:19;;;;;;;2.28;1.45;;;;;;;15.54;97.02;99062.84;4973226;28;20027;-72
2022/07/19 02:58:44;;;;;;;3.92;1.60;;;;;;;15.59;96.05;99056.72;4961993;28;20412;-72
2022/07/19 03:01:10;;;;;;;2.88;1.40;;;;;;;15.59;97.45;99064.03;4972863;28;20031;-72
2022/07/19 03:03:44;;;;;;;5.13;1.80;;;;;;;15.52;99.96;99062.25;4972439;28;20023;-72
2022/07/19 03:06:14;;;;;;;3.15;1.83;;;;;;;15.28;100.00;99057.72;4971359;28;20097;-72
2022/07/19 03:08:39;;;;;;;3.03;1.98;;;;;;;15.21;100.00;99059.69;4971949;28;20035;-72
2022/07/19 03:11:05;;;;;;;5.88;2.00;;;;;;;15.13;100.00;99045.28;4973266;28;20030;-72
2022/07/19 03:13:30;;;;;;;5.78;1.83;;;;;;;15.29;100.00;99034.84;4969432;28;20027;-72
2022/07/19 03:15:56;;;;;;;4.82;2.28;;;;;;;15.17;100.00;99031.22;4972915;28;20035;-72
2022/07/19 03:18:21;;;;;;;2.83;1.75;;;;;;;15.23;100.00;99049.41;4962100;28;20031;-72
2022/07/19 03:20:46;;;;;;;5.00;2.05;;;;;;;15.09;100.00;99044.09;4968754;28;20078;-72
2022/07/19 03:23:12;;;;;;;5.35;2.10;;;;;;;15.05;100.00;99053.78;4974421;28;20031;-72
2022/07/19 03:25:37;;;;;;;3.53;1.80;;;;;;;14.93;100.00;99044.66;4969310;28;20081;-72
2022/07/19 03:28:03;;;;;;;9.02;1.70;;;;;;;14.79;100.00;99051.31;4974847;28;20034;-71
2022/07/19 03:30:29;;;;;;;3.90;2.15;;;;;;;14.77;100.00;99061.59;4969498;28;20118;-72
2022/07/19 03:32:54;;;;;;;5.18;2.00;;;;;;;14.67;100.00;99035.72;4969459;28;20046;-72
2022/07/19 03:35:20;;;;;;;4.20;1.98;;;;;;;14.67;100.00;99041.19;4967765;28;20030;-72
2022/07/19 03:37:46;;;;;;;5.03;1.98;;;;;;;14.75;100.00;99059.13;4974892;28;20033;-71
2022/07/19 03:40:11;;;;;;;5.97;2.03;;;;;;;14.69;100.00;99047.22;4973198;28;20110;-72
2022/07/19 03:42:36;;;;;;;3.72;1.75;;;;;;;14.71;100.00;99057.91;4972876;28;20384;-72
2022/07/19 03:45:02;;;;;;;8.38;1.83;;;;;;;14.66;100.00;99061.28;4979402;28;20089;-72
2022/07/19 03:47:28;;;;;;;4.57;1.70;;;;;;;14.62;100.00;99062.81;4971442;28;20085;-72
2022/07/19 03:49:53;;;;;;;4.05;1.67;;;;;;;14.61;100.00;99066.56;4978977;28;20022;-72
2022/07/19 03:52:18;;;;;;;3.97;2.08;;;;;;;14.61;100.00;99063.84;4974196;28;20106;-73
2022/07/19 03:54:43;;;;;;;4.43;1.95;;;;;;;14.59;100.00;99068.69;4970765;28;20026;-72
2022/07/19 03:57:09;;;;;;;5.65;1.90;;;;;;;14.57;100.00;99059.09;4975593;28;20058;-72
2022/07/19 03:59:34;;;;;;;4.50;2.00;;;;;;;14.55;100.00;99048.41;4984679;28;22144;-73
2022/07/19 04:01:59;;;;;;;4.55;1.80;;;;;;;14.68;100.00;99050.19;4971050;28;20025;-72
2022/07/19 04:04:25;;;;;;;7.63;1.88;;;;;;;14.73;100.00;99069.41;4979263;28;20397;-72
2022/07/19 04:06:50;;;;;;;9.57;2.35;;;;;;;14.61;100.00;99043.94;4971062;28;20547;-72
2022/07/19 04:09:15;;;;;;;10.57;2.15;;;;;;;14.80;100.00;99050.25;4971089;28;20031;-73
2022/07/19 04:11:41;;;;;;;3.15;1.42;;;;;;;14.95;100.00;99066.25;4966725;28;20055;-72
2022/07/19 04:14:06;;;;;;;8.85;2.55;;;;;;;15.02;100.00;99067.03;4971428;28;20400;-72
2022/07/19 04:16:31;;;;;;;6.53;2.42;;;;;;;15.03;100.00;99065.94;4963879;28;20050;-72
2022/07/19 04:18:56;;;;;;;5.13;2.28;;;;;;;15.03;100.00;99058.59;4974426;28;20493;-72
2022/07/19 04:21:22;;;;;;;10.48;2.60;;;;;;;15.08;100.00;99075.13;4968952;28;20031;-68
2022/07/19 04:23:47;;;;;;;16.27;3.15;;;;;;;15.13;100.00;99067.09;4967487;28;20022;-67
2022/07/19 04:26:12;;;;;;;8.25;3.10;;;;;;;15.17;100.00;99058.47;4966069;28;20029;-67
2022/07/19 04:28:38;;;;;;;7.43;2.95;;;;;;;15.39;100.00;99083.38;4969341;28;20929;-68
2022/07/19 04:31:03;;;;;;;7.18;2.28;;;;;;;15.51;100.00;99078.81;4971437;28;20499;-68
2022/07/19 04:33:28;;;;;;;6.68;2.60;;;;;;;15.62;100.00;99085.41;4972065;28;20029;-69
2022/07/19 04:35:54;;;;;;;5.13;2.25;;;;;;;15.61;99.65;99067.38;4966447;28;20022;-73
2022/07/19 04:38:20;;;;;;;5.80;2.72;;;;;;;15.97;96.42;99080.13;4967247;28;20034;-72
2022/07/19 04:40:46;;;;;;;11.38;2.50;;;;;;;15.97;93.78;99064.59;4984746;28;20089;-71
2022/07/19 04:43:12;;;;;;;6.90;2.70;;;;;;;16.11;92.44;99081.63;4991988;28;20121;-72
2022/07/19 04:45:39;;;;;;;11.27;4.47;;;;;;;16.10;91.92;99090.03;4979185;28;20026;-73
2022/07/19 04:48:05;;;;;;;10.82;4.65;;;;;;;16.08;91.48;99078.50;4974624;28;20034;-66
2022/07/19 04:50:30;;;;;;;12.68;3.30;;;;;;;16.05;93.06;99074.34;4974242;28;20440;-70
2022/07/19 04:52:55;;;;;;;7.18;3.33;;;;;;;16.21;92.28;99095.53;4975793;28;20108;-68
2022/07/19 04:55:20;;;;;;;7.97;2.70;;;;;;;16.12;92.71;99063.34;4973573;28;20473;-69
2022/07/19 04:57:46;;;;;;;12.45;3.15;;;;;;;16.36;92.43;99092.38;4972987;28;20078;-68
2022/07/19 05:00:12;;;;;;;6.60;2.70;;;;;;;16.43;91.82;99079.44;4967911;28;20023;-71
2022/07/19 05:02:37;;;;;;;8.77;2.35;;;;;;;16.70;88.62;99089.94;4971540;28;20396;-66
2022/07/19 05:05:03;;;;;;;10.13;2.67;;;;;;;16.81;88.80;99083.66;4970232;28;20161;-70
2022/07/19 05:07:29;;;;;;;9.25;2.65;;;;;;;16.97;84.32;99086.75;4965893;28;20081;-69
2022/07/19 05:09:54;;;;;;;11.05;2.40;;;;;;;17.12;82.21;99078.09;4971487;28;20114;-69
2022/07/19 05:12:19;;;;;;;7.30;2.63;;;;;;;17.34;80.07;99078.28;4971351;28;20046;-69
2022/07/19 05:14:45;;;;;;;6.65;2.58;;;;;;;17.49;78.44;99082.16;4967767;28;20019;-69
2022/07/19 05:17:10;;;;;;;6.25;2.22;;;;;;;17.63;75.67;99079.16;4963004;28;20133;-67
2022/07/19 05:19:35;;;;;;;3.80;2.05;;;;;;;17.65;76.87;99066.06;4971385;28;20027;-64
2022/07/19 05:22:01;;;;;;;4.57;2.40;;;;;;;17.93;76.74;99078.97;4968898;28;20031;-68
2022/07/19 05:24:26;;;;;;;4.07;2.10;;;;;;;18.12;75.72;99072.22;4999004;23;20038;-65
2022/07/19 05:26:51;;;;;;;8.95;2.40;;;;;;;18.30;73.45;99079.38;4988746;28;20034;-67
2022/07/19 05:29:16;;;;;;;4.88;1.92;;;;;;;18.48;74.34;99081.06;4990102;28;20034;-72
2022/07/19 05:31:42;;;;;;;4.80;2.20;;;;;;;18.60;73.97;99073.59;4987074;28;20029;-71
2022/07/19 05:34:07;;;;;;;4.88;2.28;;;;;;;18.77;73.03;99075.53;4985498;28;20117;-68
2022/07/19 05:36:32;;;;;;;8.57;2.47;;;;;;;18.93;72.30;99071.94;4968368;28;20033;-69
2022/07/19 05:38:58;;;;;;;5.38;2.17;;;;;;;19.13;70.58;99065.09;4972821;28;20023;-68
2022/07/19 05:41:23;;;;;;;14.90;2.47;;;;;;;19.26;73.00;99053.75;4966626;28;20035;-69
2022/07/19 05:43:49;;;;;;;7.90;2.30;;;;;;;19.56;71.01;99067.03;4962720;28;20049;-69
2022/07/19 05:46:16;;;;;;;5.55;2.30;;;;;;;19.85;68.97;99064.09;4962787;28;20037;-68
2022/07/19 05:48:42;;;;;;;8.70;2.10;;;;;;;20.00;67.82;99069.75;4965778;28;20023;-69
2022/07/19 05:51:08;;;;;;;8.63;2.33;;;;;;;20.30;64.47;99066.50;4959085;28;20027;-69
2022/07/19 05:53:35;;;;;;;7.13;2.97;;;;;;;20.47;61.29;99065.56;4964532;28;20504;-69
2022/07/19 05:56:00;;;;;;;8.20;2.78;;;;;;;20.63;60.46;99050.88;4966741;28;21502;-69
2022/07/19 05:58:25;;;;;;;14.70;3.20;;;;;;;21.00;58.83;99061.03;4964269;28;20018;-68
2022/07/19 06:03:35;;;;;;;12.10;3.55;;;;;;;21.28;57.78;99056.25;4963633;28;20538;-70
2022/07/19 06:06:00;;;;;;;5.90;2.80;;;;;;;21.29;56.90;99036.69;4958451;28;20062;-68
2022/07/19 06:08:26;;;;;;;8.18;2.65;;;;;;;21.60;57.85;99054.19;4963637;28;20076;-68
2022/07/19 06:10:51;;;;;;;7.63;2.60;;;;;;;21.81;57.64;99032.25;4957660;28;20034;-69
2022/07/19 06:13:16;;;;;;;8.15;2.67;;;;;;;22.27;55.94;99058.00;4966451;28;20026;-68
2022/07/19 06:15:41;;;;;;;3.97;2.40;;;;;;;22.71;54.37;99056.59;4961593;28;20048;-69
2022/07/19 06:18:07;;;;;;;6.97;2.95;;;;;;;22.94;53.07;99061.53;4967619;28;20403;-70
2022/07/19 06:20:32;;;;;;;5.95;2.55;;;;;;;23.14;50.81;99046.09;4966974;28;20040;-69
2022/07/19 06:22:57;;;;;;;6.22;2.25;;;;;;;23.54;49.53;99044.31;4966144;28;20046;-69
2022/07/19 06:25:23;;;;;;;4.85;2.55;;;;;;;23.58;49.34;99043.47;4967620;28;20103;-70
2022/07/19 06:27:48;;;;;;;3.67;2.28;;;;;;;23.78;48.34;99039.78;4960042;28;20034;-70
2022/07/19 06:30:13;;;;;;;3.42;1.83;;;;;;;24.19;48.62;99049.78;4963857;28;20888;-68
2022/07/19 06:32:39;;;;;;;3.40;2.10;;;;;;;24.16;47.85;99044.84;4971785;28;20015;-69
2022/07/19 06:35:04;;;;;;;6.55;1.88;;;;;;;24.77;47.44;99049.06;4970291;28;20022;-69
2022/07/19 06:37:30;;;;;;;4.05;1.77;;;;;;;25.12;46.54;99042.34;4962123;28;20571;-68
2022/07/19 06:39:55;;;;;;;7.57;2.05;;;;;;;25.57;45.53;99052.13;4967307;28;20041;-66
2022/07/19 06:42:20;;;;;;;4.70;1.90;;;;;;;25.79;44.80;99023.00;4959373;28;20046;-65
2022/07/19 06:44:45;;;;;;;7.50;2.10;;;;;;;26.39;44.30;99028.78;4958295;28;20027;-68
2022/07/19 06:47:11;;;;;;;6.25;1.80;;;;;;;27.05;42.71;99028.78;4964731;28;20073;-68
2022/07/19 06:49:36;;;;;;;5.07;1.67;;;;;;;27.71;39.53;99048.88;4969692;28;20038;-66
2022/07/19 06:52:01;;;;;;;4.07;1.75;;;;;;;28.47;38.95;99051.09;4969828;28;20015;-66
2022/07/19 06:54:27;;;;;;;3.33;1.50;;;;;;;29.19;38.08;99050.94;4958153;28;20515;-65
2022/07/19 06:56:53;;;;;;;3.72;1.95;;;;;;;30.80;35.31;99047.41;4959240;28;20460;-66
2022/07/19 06:59:19;;;;;;;4.80;1.70;;;;;;;32.46;31.81;99040.97;4963898;28;20033;-67
2022/07/19 07:01:44;;;;;;;2.50;1.42;;;;;;;34.27;29.54;99016.69;4961578;28;20106;-72
2022/07/19 07:04:10;;;;;;;6.65;1.73;;;;;;;35.14;28.41;99040.41;4982333;28;20113;-71
2022/07/19 07:06:35;;;;;;;5.68;1.95;;;;;;;35.95;28.05;99037.19;4961409;28;20042;-74
2022/07/19 07:09:02;;;;;;;9.27;2.03;;;;;;;37.44;26.40;99038.56;4967926;28;20086;-72
2022/07/19 07:11:27;;;;;;;3.40;1.80;;;;;;;37.98;25.44;99033.00;4968789;28;20457;-70
2022/07/19 07:13:52;;;;;;;6.55;1.77;;;;;;;37.41;26.02;99030.03;4967520;28;20054;-70
2022/07/19 07:16:18;;;;;;;8.00;2.17;;;;;;;37.89;25.45;99036.06;4965629;28;20114;-70
2022/07/19 07:18:43;;;;;;;4.57;1.95;;;;;;;38.22;25.65;99020.41;4969296;28;20289;-72
2022/07/19 07:21:08;;;;;;;5.40;1.80;;;;;;;38.13;26.10;99029.97;4961241;28;20061;-73
2022/07/19 07:23:34;;;;;;;13.30;2.20;;;;;;;38.09;25.88;99029.09;4969748;28;20030;-69
2022/07/19 07:25:59;;;;;;;9.20;2.08;;;;;;;39.16;24.84;99026.75;4961166;28;20290;-68
2022/07/19 07:28:24;;;;;;;8.70;1.80;;;;;;;39.72;24.96;99030.47;4973105;28;20033;-71
2022/07/19 07:30:49;;;;;;;8.40;1.70;;;;;;;39.98;24.55;99034.28;4972986;28;20282;-73
2022/07/19 07:33:15;;;;;;;6.80;1.75;;;;;;;39.23;25.44;99006.19;4965930;28;20370;-72
2022/07/19 07:35:40;;;;;;;10.18;1.90;;;;;;;39.95;24.44;99023.75;4963433;28;20039;-72
2022/07/19 07:38:05;;;;;;;9.07;2.30;;;;;;;40.23;23.86;99023.94;4958378;28;20019;-70
2022/07/19 07:40:30;;;;;;;6.03;1.58;;;;;;;38.79;25.26;99018.28;4963607;28;20314;-63
2022/07/19 07:42:56;;;;;;;11.87;2.00;;;;;;;41.05;22.61;99016.91;4969889;28;20027;-68
2022/07/19 07:45:21;;;;;;;8.27;1.60;;;;;;;40.91;22.89;99018.50;4969137;28;20741;-67
2022/07/19 07:47:47;;;;;;;10.57;2.17;;;;;;;42.07;21.74;99016.47;4963542;28;20042;-68
2022/07/19 07:50:12;;;;;;;4.70;1.30;;;;;;;41.72;20.93;99018.16;4971159;28;20483;-67
2022/07/19 07:52:38;;;;;;;6.10;1.52;;;;;;;42.96;19.78;99001.03;4970868;28;20030;-67
2022/07/19 07:55:04;;;;;;;4.70;1.27;;;;;;;43.85;18.14;99006.00;4969184;28;20031;-67
2022/07/19 07:57:29;;;;;;;4.22;1.20;;;;;;;43.33;18.74;99006.88;4962946;28;20033;-68
2022/07/19 07:59:55;;;;;;;4.28;1.15;;;;;;;42.95;19.24;99010.81;4970696;28;20030;-69
2022/07/19 08:02:20;;;;;;;2.85;1.20;;;;;;;43.84;18.21;99010.09;4969767;28;20035;-68
2022/07/19 08:04:45;;;;;;;4.00;1.35;;;;;;;42.61;18.98;99008.56;4968088;28;20034;-66
2022/07/19 08:07:11;;;;;;;2.10;1.03;;;;;;;42.28;18.41;98999.34;4967087;28;20520;-66
2022/07/19 08:09:36;;;;;;;4.47;0.98;;;;;;;42.82;17.28;98988.53;4971983;28;20274;-66
2022/07/19 08:12:01;;;;;;;3.53;0.90;;;;;;;42.08;18.22;98992.50;4972269;28;20022;-66
2022/07/19 08:14:27;;;;;;;4.53;1.20;;;;;;;40.94;18.82;98988.50;4971294;28;20113;-67
2022/07/19 08:16:53;;;;;;;2.17;0.90;;;;;;;42.04;17.55;98992.53;4970754;28;20867;-67
2022/07/19 08:19:18;;;;;;;1.63;1.08;;;;;;;41.85;17.85;98987.28;4974043;28;20027;-68
2022/07/19 08:21:43;;;;;;;7.85;1.30;;;;;;;40.95;18.25;98998.63;4973511;28;20037;-67
2022/07/19 08:24:09;;;;;;;3.03;1.00;;;;;;;41.31;17.96;98993.00;4970129;28;20057;-68
2022/07/19 08:26:34;;;;;;;8.93;1.27;;;;;;;40.91;18.57;98987.28;4967769;28;20042;-70
2022/07/19 08:28:59;;;;;;;4.55;1.23;;;;;;;42.61;17.53;98985.81;4966784;28;20282;-69
2022/07/19 08:31:25;;;;;;;1.13;1.02;;;;;;;42.97;17.01;98988.41;4972748;28;20019;-67
2022/07/19 08:33:50;;;;;;;5.20;1.20;;;;;;;43.49;16.82;98982.72;4962859;28;20400;-66
2022/07/19 08:36:15;;;;;;;2.77;1.00;;;;;;;42.15;17.55;98992.50;4968070;28;20023;-68
2022/07/19 08:38:42;;;;;;;3.35;1.10;;;;;;;42.78;17.08;98989.78;4968804;28;20369;-68
2022/07/19 08:41:07;;;;;;;6.70;1.33;;;;;;;42.68;17.45;98991.44;4963512;28;20034;-72
2022/07/19 08:43:33;;;;;;;5.22;0.98;;;;;;;42.02;17.67;98990.09;4966664;28;20121;-71
2022/07/19 08:46:00;;;;;;;3.25;0.90;;;;;;;41.78;17.94;98968.22;4968008;28;20019;-74
2022/07/19 08:48:26;;;;;;;4.18;1.10;;;;;;;43.36;16.70;98978.78;4967204;28;20077;-71
2022/07/19 08:50:52;;;;;;;2.38;1.10;;;;;;;44.43;15.82;98977.63;4964645;28;20034;-72
2022/07/19 08:53:18;;;;;;;4.35;1.30;;;;;;;43.92;15.82;98991.66;4968439;28;20026;-72
2022/07/19 08:55:43;;;;;;;4.28;0.90;;;;;;;43.67;16.07;98983.38;4969880;28;20049;-74
2022/07/19 08:58:09;;;;;;;5.03;1.10;;;;;;;43.65;15.91;98985.88;4966675;28;20547;-71
2022/07/19 09:00:34;;;;;;;3.70;1.10;;;;;;;43.54;16.18;98985.91;4970801;28;20039;-67
2022/07/19 09:03:03;;;;;;;4.72;1.20;;;;;;;42.22;16.93;98989.63;4972164;28;20042;-67
2022/07/19 09:05:29;;;;;;;1.02;0.77;;;;;;;42.22;16.70;98981.09;4967187;28;20505;-67
2022/07/19 09:08:12;;;;;;;4.95;1.10;;;;;;;40.75;17.61;98981.19;4962455;28;20097;-68
2022/07/19 09:13:41;;;;;;;5.20;1.00;;;;;;;42.90;16.37;98980.75;4954616;28;20053;-70
2022/07/19 09:16:07;;;;;;;3.05;1.13;;;;;;;43.07;15.96;98987.53;4968825;28;20026;-65
2022/07/19 09:18:34;;;;;;;3.27;1.23;;;;;;;43.62;15.77;98980.97;4959442;28;20030;-70
2022/07/19 09:21:05;;;;;;;2.90;1.00;;;;;;;43.43;15.85;98976.66;4966447;28;20329;-67
2022/07/19 09:23:32;;;;;;;3.28;1.00;;;;;;;44.81;15.43;98971.81;4966744;28;20039;-67
2022/07/19 09:26:01;;;;;;;3.58;1.20;;;;;;;45.19;14.41;98968.78;4963854;28;20026;-65
2022/07/19 09:28:31;;;;;;;1.45;0.90;;;;;;;44.99;14.69;98948.69;4967529;28;20378;-67
2022/07/19 09:30:58;;;;;;;1.13;0.95;;;;;;;44.92;14.87;98958.19;4965394;28;20022;-66
2022/07/19 09:33:29;;;;;;;1.43;1.00;;;;;;;43.98;15.44;98955.78;4963979;28;20034;-67
2022/07/19 09:35:57;;;;;;;2.25;1.25;;;;;;;43.12;15.88;98970.81;4963102;28;20111;-67
2022/07/19 09:38:26;;;;;;;2.80;1.10;;;;;;;43.67;15.34;98963.44;4967386;28;20540;-67
2022/07/19 09:41:13;;;;;;;1.88;1.05;;;;;;;43.87;15.67;98945.72;4963987;28;20031;-67
2022/07/19 09:43:56;;;;;;;2.65;0.90;;;;;;;43.50;15.99;98961.56;4962399;28;20416;-66
2022/07/19 09:46:32;;;;;;;3.40;1.08;;;;;;;42.84;16.60;98968.19;4958571;28;20027;-67
2022/07/19 09:49:15;;;;;;;2.25;1.10;;;;;;;41.90;17.19;98956.41;4963935;28;20060;-66
2022/07/19 09:51:45;;;;;;;1.65;1.15;;;;;;;41.76;16.69;98971.47;4964773;28;20099;-66
2022/07/19 09:54:12;;;;;;;4.82;1.48;;;;;;;41.01;17.02;98960.16;4958813;28;20038;-66
2022/07/19 09:56:39;;;;;;;4.53;1.27;;;;;;;41.22;16.88;98967.88;4960052;28;20022;-64
2022/07/19 09:59:06;;;;;;;1.70;1.20;;;;;;;41.69;16.53;98954.44;4962752;28;20023;-66
2022/07/19 10:01:32;;;;;;;2.17;1.10;;;;;;;42.23;16.50;98960.75;4962717;28;20107;-66
2022/07/19 10:04:21;;;;;;;1.90;1.00;;;;;;;42.28;16.04;98965.22;4967895;28;20031;-67
2022/07/19 10:06:48;;;;;;;3.63;1.10;;;;;;;42.38;16.03;98953.00;4955541;28;22536;-67
2022/07/19 10:09:15;;;;;;;1.95;1.10;;;;;;;41.22;17.31;98950.03;4963672;28;20133;-66
2022/07/19 10:11:41;;;;;;;1.77;0.80;;;;;;;43.17;15.17;98949.66;4963815;28;20025;-66
2022/07/19 10:14:07;;;;;;;2.30;1.20;;;;;;;42.59;15.60;98952.06;4965617;28;20046;-66
2022/07/19 10:16:53;;;;;;;5.78;1.75;;;;;;;42.52;15.67;98948.44;4970253;28;20039;-67
2022/07/19 10:19:37;;;;;;;8.35;1.30;;;;;;;42.17;16.26;98948.22;4970318;28;20394;-65
2022/07/19 10:22:03;;;;;;;4.75;1.48;;;;;;;42.64;16.24;98943.09;4962034;28;20113;-66
2022/07/19 10:24:52;;;;;;;4.47;1.40;;;;;;;42.55;15.15;98944.78;4962562;28;20045;-66
2022/07/19 10:27:23;;;;;;;5.55;1.48;;;;;;;42.18;16.01;98941.28;4961489;28;20023;-66
2022/07/19 10:29:49;;;;;;;4.47;1.50;;;;;;;42.13;15.62;98927.53;4955839;28;20135;-66
2022/07/19 10:32:15;;;;;;;5.32;1.50;;;;;;;41.76;16.07;98936.56;4964697;28;20119;-67
2022/07/19 10:34:41;;;;;;;2.47;1.35;;;;;;;42.03;15.69;98929.19;4964782;28;20027;-67
2022/07/19 10:37:07;;;;;;;2.95;1.50;;;;;;;41.95;15.69;98919.06;4961637;28;20038;-66
2022/07/19 10:39:38;;;;;;;5.25;1.73;;;;;;;41.78;16.20;98911.38;4966659;28;20030;-66
2022/07/19 10:42:23;;;;;;;1.75;1.20;;;;;;;43.21;15.43;98893.50;4968290;28;20094;-65
2022/07/19 10:44:54;;;;;;;4.38;1.42;;;;;;;44.05;15.28;98914.16;4966217;28;20041;-66
2022/07/19 10:47:19;;;;;;;2.47;1.40;;;;;;;43.97;14.43;98922.00;4959081;28;20037;-65
2022/07/19 10:49:47;;;;;;;4.25;1.35;;;;;;;43.60;15.67;98895.13;4967433;28;20400;-66
2022/07/19 10:52:28;;;;;;;8.98;1.58;;;;;;;44.31;14.87;98909.75;4963239;28;20031;-66
2022/07/19 10:55:19;;;;;;;3.67;1.60;;;;;;;44.81;14.69;98909.81;4962108;28;21759;-66
2022/07/19 10:57:49;;;;;;;3.58;1.48;;;;;;;45.45;13.80;98898.50;4957789;28;20019;-72
2022/07/19 11:00:29;;;;;;;3.95;1.60;;;;;;;45.86;13.34;98900.19;4967153;28;20041;-70
2022/07/19 11:03:22;;;;;;;4.40;1.38;;;;;;;44.83;14.06;98889.38;4978187;28;20039;-66
2022/07/19 11:05:53;;;;;;;2.95;1.52;;;;;;;43.14;14.96;98896.38;4967098;28;20034;-67
2022/07/19 11:08:31;;;;;;;7.13;1.63;;;;;;;43.79;14.64;98890.03;4965103;28;20523;-67
2022/07/19 11:11:23;;;;;;;1.92;1.38;;;;;;;43.67;14.76;98886.47;4965710;28;20066;-68
2022/07/19 11:13:55;;;;;;;3.40;1.70;;;;;;;44.46;14.44;98885.47;4964717;28;20038;-68
2022/07/19 11:16:24;;;;;;;1.98;1.20;;;;;;;44.51;14.44;98875.63;4969730;28;20504;-68
2022/07/19 11:18:49;;;;;;;4.28;1.70;;;;;;;44.60;14.26;98873.03;4960652;28;20105;-69
2022/07/19 11:21:16;;;;;;;2.77;1.60;;;;;;;43.85;14.76;98854.09;4961948;28;20118;-74
2022/07/19 11:23:43;;;;;;;4.72;1.70;;;;;;;42.61;15.36;98852.09;4958088;28;20286;-73
2022/07/19 11:26:22;;;;;;;2.95;1.70;;;;;;;44.24;14.59;98852.78;4969421;28;20644;-72
2022/07/19 11:28:49;;;;;;;3.13;1.50;;;;;;;44.16;14.65;98846.38;4971050;28;20031;-72
2022/07/19 11:31:19;;;;;;;3.10;1.65;;;;;;;44.23;15.20;98859.72;4970287;28;20057;-74
2022/07/19 11:33:46;;;;;;;4.63;1.70;;;;;;;44.31;14.38;98856.34;4961203;28;20038;-73
2022/07/19 11:36:16;;;;;;;3.63;1.50;;;;;;;44.18;14.47;98843.91;4963545;28;20090;-73